Gunnison, CO (81247)

2:13 PM MDT on April 29, 2017 (GMT -0600)
none | | Change Station

Elev 6955 ft 38.63 °N, 107.58 °W | Updated 6 seconds ago

Overcast
Overcast
37.9 °F
Feels Like 32 °F
N
8.3
Wind Variable Wind from NNE
Gusts 9.8 mph

Today
High -- | Low -- °F
--% Chance of Precip.
Yesterday
High -- | Low -- °F
Precip. -- in
Pressure 30.06 in
Visibility 10.0 miles
Clouds Clear
Windchill 32 °F
Dew Point 31 °F
Humidity 75%
Rainfall 0.33 in
Snow Depth Not available.
6:14 AM 7:59 PM
Waxing Crescent, 16% visible
METAR KGUC 291856Z AUTO 00000KT 10SM CLR 01/M10 A3001 RMK AO2 SLP177 T00111100 FZRANO
Pressure 30.06 in
Visibility 10.0 miles
Clouds Clear
Windchill 32 °F
Dew Point 31 °F
Humidity 75%
Rainfall 0.33 in
Snow Depth Not available.
6:14 AM 7:59 PM
Waxing Crescent, 16% visible
METAR KGUC 291856Z AUTO 00000KT 10SM CLR 01/M10 A3001 RMK AO2 SLP177 T00111100 FZRANO

Get Severe Weather Alerts

Thanks for signing up!

Be on the lookout for a verification email in your inbox.

You'll start receiving the daily forecast at 8 AM.

×

10-Day Weather Forecast

Almanac

Astronomy

Apr. 29, 2017 Rise Set
Actual Time
Civil Twilight
Nautical Twilight
Astronomical Twilight
Moon
Length of Visible Light
Length of Day
Tomorrow will be .
, % of the Moon is Illuminated

Today's Extremes

State Highs State Lows

Community

WunderPhotos

WunderBlog® & News

Nearby

Air Quality

  Air Quality AQ Index Pollutant
Not available.

Snow Depth

Station Depth Elevation

Earthquake Activity

City Distance Mag. Time & Date
Minimum magnitude displayed is 2.5.

Coastal Water Temperatures

Place Temperature

Stations

Nearby Weather Stations

Station Location Temp. Windchill Dew Point Humidity Wind Precip. Elev Updated Type
                   

Watches & Warnings

There are currently no watches in effect.